sensor_id;sensor_type;location;lat;lon;timestamp;temperature;humidity
31837;DHT22;18401;49.344;6.240;2023-10-31T00:00:17;10.70;99.90
31837;DHT22;18401;49.344;6.240;2023-10-31T00:02:42;10.70;99.90
31837;DHT22;18401;49.344;6.240;2023-10-31T00:05:08;10.70;99.90
31837;DHT22;18401;49.344;6.240;2023-10-31T00:07:34;10.70;99.90
31837;DHT22;18401;49.344;6.240;2023-10-31T00:10:00;10.70;99.90
31837;DHT22;18401;49.344;6.240;2023-10-31T00:12:27;10.70;99.90
31837;DHT22;18401;49.344;6.240;2023-10-31T00:14:53;10.80;99.90
31837;DHT22;18401;49.344;6.240;2023-10-31T00:17:18;10.70;99.90
31837;DHT22;18401;49.344;6.240;2023-10-31T00:19:44;10.70;99.90
31837;DHT22;18401;49.344;6.240;2023-10-31T00:22:10;10.80;99.90
31837;DHT22;18401;49.344;6.240;2023-10-31T00:24:35;10.70;99.90
31837;DHT22;18401;49.344;6.240;2023-10-31T00:27:01;10.70;99.90
31837;DHT22;18401;49.344;6.240;2023-10-31T00:29:27;10.70;99.90
31837;DHT22;18401;49.344;6.240;2023-10-31T00:31:52;10.60;99.90
31837;DHT22;18401;49.344;6.240;2023-10-31T00:34:18;10.60;99.90
31837;DHT22;18401;49.344;6.240;2023-10-31T00:36:44;10.60;99.90
31837;DHT22;18401;49.344;6.240;2023-10-31T00:39:09;10.60;99.90
31837;DHT22;18401;49.344;6.240;2023-10-31T00:41:35;10.60;99.90
31837;DHT22;18401;49.344;6.240;2023-10-31T00:44:01;10.70;99.90
31837;DHT22;18401;49.344;6.240;2023-10-31T00:46:26;10.70;99.90
31837;DHT22;18401;49.344;6.240;2023-10-31T00:48:52;10.60;99.90
31837;DHT22;18401;49.344;6.240;2023-10-31T00:51:18;10.60;99.90
31837;DHT22;18401;49.344;6.240;2023-10-31T00:53:43;10.70;99.90
31837;DHT22;18401;49.344;6.240;2023-10-31T00:56:09;10.70;99.90
31837;DHT22;18401;49.344;6.240;2023-10-31T00:58:34;10.70;99.90
31837;DHT22;18401;49.344;6.240;2023-10-31T01:01:00;10.60;99.90
31837;DHT22;18401;49.344;6.240;2023-10-31T01:03:26;10.60;99.90
31837;DHT22;18401;49.344;6.240;2023-10-31T01:05:51;10.60;99.90
31837;DHT22;18401;49.344;6.240;2023-10-31T01:08:17;10.60;99.90
31837;DHT22;18401;49.344;6.240;2023-10-31T01:10:42;10.70;99.90
31837;DHT22;18401;49.344;6.240;2023-10-31T01:13:09;10.60;99.90
31837;DHT22;18401;49.344;6.240;2023-10-31T01:15:35;10.60;99.90
31837;DHT22;18401;49.344;6.240;2023-10-31T01:18:00;10.60;99.90
31837;DHT22;18401;49.344;6.240;2023-10-31T01:20:26;10.60;99.90
31837;DHT22;18401;49.344;6.240;2023-10-31T01:22:52;10.60;99.90
31837;DHT22;18401;49.344;6.240;2023-10-31T01:25:18;10.60;99.90
31837;DHT22;18401;49.344;6.240;2023-10-31T01:27:43;10.60;99.90
31837;DHT22;18401;49.344;6.240;2023-10-31T01:30:09;10.50;99.90
31837;DHT22;18401;49.344;6.240;2023-10-31T01:32:35;10.60;99.90
31837;DHT22;18401;49.344;6.240;2023-10-31T01:35:01;10.60;99.90
31837;DHT22;18401;49.344;6.240;2023-10-31T01:37:27;10.60;99.90
31837;DHT22;18401;49.344;6.240;2023-10-31T01:39:53;10.60;99.90
31837;DHT22;18401;49.344;6.240;2023-10-31T01:42:19;10.60;99.90
31837;DHT22;18401;49.344;6.240;2023-10-31T01:44:44;10.50;99.90
31837;DHT22;18401;49.344;6.240;2023-10-31T01:47:10;10.50;99.90
31837;DHT22;18401;49.344;6.240;2023-10-31T01:49:36;10.50;99.90
31837;DHT22;18401;49.344;6.240;2023-10-31T01:52:03;10.40;99.90
31837;DHT22;18401;49.344;6.240;2023-10-31T01:54:29;10.40;99.90
31837;DHT22;18401;49.344;6.240;2023-10-31T01:56:58;10.50;99.90
31837;DHT22;18401;49.344;6.240;2023-10-31T01:59:25;10.50;99.90
31837;DHT22;18401;49.344;6.240;2023-10-31T02:01:51;10.40;99.90
31837;DHT22;18401;49.344;6.240;2023-10-31T02:04:17;10.50;99.90
31837;DHT22;18401;49.344;6.240;2023-10-31T02:06:43;10.40;99.90
31837;DHT22;18401;49.344;6.240;2023-10-31T02:09:09;10.40;99.90
31837;DHT22;18401;49.344;6.240;2023-10-31T02:11:35;10.40;99.90
31837;DHT22;18401;49.344;6.240;2023-10-31T02:14:01;10.30;99.90
31837;DHT22;18401;49.344;6.240;2023-10-31T02:16:27;10.40;99.90
31837;DHT22;18401;49.344;6.240;2023-10-31T02:18:52;10.40;99.90
31837;DHT22;18401;49.344;6.240;2023-10-31T02:21:19;10.30;99.90
31837;DHT22;18401;49.344;6.240;2023-10-31T02:24:05;10.20;99.90
31837;DHT22;18401;49.344;6.240;2023-10-31T02:26:32;10.30;99.90
31837;DHT22;18401;49.344;6.240;2023-10-31T02:28:58;10.20;99.90
31837;DHT22;18401;49.344;6.240;2023-10-31T02:31:24;10.30;99.90
31837;DHT22;18401;49.344;6.240;2023-10-31T02:33:50;10.20;99.90
31837;DHT22;18401;49.344;6.240;2023-10-31T02:36:16;10.20;99.90
31837;DHT22;18401;49.344;6.240;2023-10-31T02:38:41;10.10;99.90
31837;DHT22;18401;49.344;6.240;2023-10-31T02:41:07;10.20;99.90
31837;DHT22;18401;49.344;6.240;2023-10-31T02:43:33;10.10;99.90
31837;DHT22;18401;49.344;6.240;2023-10-31T02:45:59;10.20;99.90
31837;DHT22;18401;49.344;6.240;2023-10-31T02:48:25;10.10;99.90
31837;DHT22;18401;49.344;6.240;2023-10-31T02:50:51;10.10;99.90
31837;DHT22;18401;49.344;6.240;2023-10-31T02:53:18;10.10;99.90
31837;DHT22;18401;49.344;6.240;2023-10-31T02:55:44;10.10;99.90
31837;DHT22;18401;49.344;6.240;2023-10-31T02:58:10;10.00;99.90
31837;DHT22;18401;49.344;6.240;2023-10-31T03:00:36;9.80;99.90
31837;DHT22;18401;49.344;6.240;2023-10-31T03:03:02;9.90;99.90
31837;DHT22;18401;49.344;6.240;2023-10-31T03:05:27;9.90;99.90
31837;DHT22;18401;49.344;6.240;2023-10-31T03:07:53;9.90;99.90
31837;DHT22;18401;49.344;6.240;2023-10-31T03:10:20;10.00;99.90
31837;DHT22;18401;49.344;6.240;2023-10-31T03:12:45;9.90;99.90
31837;DHT22;18401;49.344;6.240;2023-10-31T03:15:11;9.90;99.90
31837;DHT22;18401;49.344;6.240;2023-10-31T03:17:37;9.90;99.90
31837;DHT22;18401;49.344;6.240;2023-10-31T03:20:03;9.90;99.90
31837;DHT22;18401;49.344;6.240;2023-10-31T03:22:28;9.90;99.90
31837;DHT22;18401;49.344;6.240;2023-10-31T03:24:54;9.80;99.90
31837;DHT22;18401;49.344;6.240;2023-10-31T03:27:20;9.70;99.90
31837;DHT22;18401;49.344;6.240;2023-10-31T03:29:45;9.80;99.90
31837;DHT22;18401;49.344;6.240;2023-10-31T03:32:12;9.80;99.90
31837;DHT22;18401;49.344;6.240;2023-10-31T03:34:37;9.80;99.90
31837;DHT22;18401;49.344;6.240;2023-10-31T03:37:03;9.90;99.90
31837;DHT22;18401;49.344;6.240;2023-10-31T03:39:29;9.90;99.90
31837;DHT22;18401;49.344;6.240;2023-10-31T03:41:55;9.80;99.90
31837;DHT22;18401;49.344;6.240;2023-10-31T03:44:21;10.00;99.90
31837;DHT22;18401;49.344;6.240;2023-10-31T03:46:46;9.90;99.90
31837;DHT22;18401;49.344;6.240;2023-10-31T03:49:12;9.80;99.90
31837;DHT22;18401;49.344;6.240;2023-10-31T03:51:37;9.90;99.90
31837;DHT22;18401;49.344;6.240;2023-10-31T03:54:03;9.90;99.90
31837;DHT22;18401;49.344;6.240;2023-10-31T03:56:29;9.90;99.90
31837;DHT22;18401;49.344;6.240;2023-10-31T03:58:55;9.80;99.90
31837;DHT22;18401;49.344;6.240;2023-10-31T04:01:21;9.50;99.90
31837;DHT22;18401;49.344;6.240;2023-10-31T04:03:46;9.50;99.90
31837;DHT22;18401;49.344;6.240;2023-10-31T04:06:12;9.50;99.90
31837;DHT22;18401;49.344;6.240;2023-10-31T04:08:38;9.50;99.90
31837;DHT22;18401;49.344;6.240;2023-10-31T04:11:03;9.40;99.90
31837;DHT22;18401;49.344;6.240;2023-10-31T04:13:29;9.40;99.90
31837;DHT22;18401;49.344;6.240;2023-10-31T04:15:55;9.30;99.90
31837;DHT22;18401;49.344;6.240;2023-10-31T04:18:20;9.40;99.90
31837;DHT22;18401;49.344;6.240;2023-10-31T04:20:46;9.20;99.90
31837;DHT22;18401;49.344;6.240;2023-10-31T04:23:12;9.30;99.90
31837;DHT22;18401;49.344;6.240;2023-10-31T04:25:38;9.40;99.90
31837;DHT22;18401;49.344;6.240;2023-10-31T04:28:03;9.30;99.90
31837;DHT22;18401;49.344;6.240;2023-10-31T04:30:29;9.20;99.90
31837;DHT22;18401;49.344;6.240;2023-10-31T04:32:55;9.30;99.90
31837;DHT22;18401;49.344;6.240;2023-10-31T04:35:20;9.40;99.90
31837;DHT22;18401;49.344;6.240;2023-10-31T04:37:46;9.40;99.90
31837;DHT22;18401;49.344;6.240;2023-10-31T04:40:12;9.40;99.90
31837;DHT22;18401;49.344;6.240;2023-10-31T04:42:42;9.50;99.90
31837;DHT22;18401;49.344;6.240;2023-10-31T04:45:08;9.60;99.90
31837;DHT22;18401;49.344;6.240;2023-10-31T04:47:34;9.60;99.90
31837;DHT22;18401;49.344;6.240;2023-10-31T04:49:59;9.70;99.90
31837;DHT22;18401;49.344;6.240;2023-10-31T04:52:25;9.80;99.90
31837;DHT22;18401;49.344;6.240;2023-10-31T04:54:51;9.80;99.90
31837;DHT22;18401;49.344;6.240;2023-10-31T04:57:17;9.70;99.90
31837;DHT22;18401;49.344;6.240;2023-10-31T04:59:43;9.60;99.90
31837;DHT22;18401;49.344;6.240;2023-10-31T05:02:09;9.50;99.90
31837;DHT22;18401;49.344;6.240;2023-10-31T05:04:38;9.30;99.90
31837;DHT22;18401;49.344;6.240;2023-10-31T05:07:05;9.30;99.90
31837;DHT22;18401;49.344;6.240;2023-10-31T05:09:30;9.30;99.90
31837;DHT22;18401;49.344;6.240;2023-10-31T05:11:56;9.20;99.90
31837;DHT22;18401;49.344;6.240;2023-10-31T05:14:21;9.20;99.90
31837;DHT22;18401;49.344;6.240;2023-10-31T05:16:47;9.50;99.90
31837;DHT22;18401;49.344;6.240;2023-10-31T05:19:13;9.60;99.90
31837;DHT22;18401;49.344;6.240;2023-10-31T05:21:38;9.60;99.90
31837;DHT22;18401;49.344;6.240;2023-10-31T05:24:04;9.70;99.90
31837;DHT22;18401;49.344;6.240;2023-10-31T05:26:30;9.60;99.90
31837;DHT22;18401;49.344;6.240;2023-10-31T05:28:56;9.70;99.90
31837;DHT22;18401;49.344;6.240;2023-10-31T05:31:23;9.60;99.90
31837;DHT22;18401;49.344;6.240;2023-10-31T05:33:50;9.70;99.90
31837;DHT22;18401;49.344;6.240;2023-10-31T05:36:20;9.70;99.90
31837;DHT22;18401;49.344;6.240;2023-10-31T05:38:46;9.70;99.90
31837;DHT22;18401;49.344;6.240;2023-10-31T05:41:12;9.70;99.90
31837;DHT22;18401;49.344;6.240;2023-10-31T05:43:38;9.60;99.90
31837;DHT22;18401;49.344;6.240;2023-10-31T05:46:03;9.70;99.90
31837;DHT22;18401;49.344;6.240;2023-10-31T05:48:31;9.60;99.90
31837;DHT22;18401;49.344;6.240;2023-10-31T05:50:56;9.80;99.90
31837;DHT22;18401;49.344;6.240;2023-10-31T05:53:22;9.60;99.90
31837;DHT22;18401;49.344;6.240;2023-10-31T05:55:48;9.70;99.90
31837;DHT22;18401;49.344;6.240;2023-10-31T05:58:13;9.70;99.90
31837;DHT22;18401;49.344;6.240;2023-10-31T06:00:39;9.90;99.90
31837;DHT22;18401;49.344;6.240;2023-10-31T06:03:04;9.70;99.90
31837;DHT22;18401;49.344;6.240;2023-10-31T06:05:30;9.80;99.90
31837;DHT22;18401;49.344;6.240;2023-10-31T06:07:55;9.90;99.90
31837;DHT22;18401;49.344;6.240;2023-10-31T06:10:21;9.90;99.90
31837;DHT22;18401;49.344;6.240;2023-10-31T06:12:47;9.90;99.90
31837;DHT22;18401;49.344;6.240;2023-10-31T06:15:13;9.90;99.90
31837;DHT22;18401;49.344;6.240;2023-10-31T06:17:38;9.90;99.90
31837;DHT22;18401;49.344;6.240;2023-10-31T06:20:07;9.90;99.90
31837;DHT22;18401;49.344;6.240;2023-10-31T06:22:33;9.90;99.90
31837;DHT22;18401;49.344;6.240;2023-10-31T06:24:58;9.90;99.90
31837;DHT22;18401;49.344;6.240;2023-10-31T06:27:24;9.80;99.90
31837;DHT22;18401;49.344;6.240;2023-10-31T06:29:50;9.80;99.90
31837;DHT22;18401;49.344;6.240;2023-10-31T06:32:15;9.80;99.90
31837;DHT22;18401;49.344;6.240;2023-10-31T06:34:41;9.80;99.90
31837;DHT22;18401;49.344;6.240;2023-10-31T06:37:07;9.80;99.90
31837;DHT22;18401;49.344;6.240;2023-10-31T06:39:32;9.90;99.90
31837;DHT22;18401;49.344;6.240;2023-10-31T06:41:58;9.90;99.90
31837;DHT22;18401;49.344;6.240;2023-10-31T06:44:24;9.90;99.90
31837;DHT22;18401;49.344;6.240;2023-10-31T06:46:49;9.90;99.90
31837;DHT22;18401;49.344;6.240;2023-10-31T06:49:15;9.70;99.90
31837;DHT22;18401;49.344;6.240;2023-10-31T06:51:41;9.80;99.90
31837;DHT22;18401;49.344;6.240;2023-10-31T06:54:06;9.80;99.90
31837;DHT22;18401;49.344;6.240;2023-10-31T06:56:32;9.90;99.90
31837;DHT22;18401;49.344;6.240;2023-10-31T06:58:58;9.80;99.90
31837;DHT22;18401;49.344;6.240;2023-10-31T07:01:23;9.80;99.90
31837;DHT22;18401;49.344;6.240;2023-10-31T07:03:50;9.80;99.90
31837;DHT22;18401;49.344;6.240;2023-10-31T07:06:15;9.90;99.90
31837;DHT22;18401;49.344;6.240;2023-10-31T07:08:41;9.90;99.90
31837;DHT22;18401;49.344;6.240;2023-10-31T07:11:07;9.90;99.90
31837;DHT22;18401;49.344;6.240;2023-10-31T07:13:32;10.00;99.90
31837;DHT22;18401;49.344;6.240;2023-10-31T07:15:58;9.90;99.90
31837;DHT22;18401;49.344;6.240;2023-10-31T07:18:23;9.90;99.90
31837;DHT22;18401;49.344;6.240;2023-10-31T07:20:49;9.80;99.90
31837;DHT22;18401;49.344;6.240;2023-10-31T07:23:14;10.00;99.90
31837;DHT22;18401;49.344;6.240;2023-10-31T07:25:41;10.00;99.90
31837;DHT22;18401;49.344;6.240;2023-10-31T07:28:06;9.90;99.90
31837;DHT22;18401;49.344;6.240;2023-10-31T07:30:32;10.00;99.90
31837;DHT22;18401;49.344;6.240;2023-10-31T07:32:58;10.10;99.90
31837;DHT22;18401;49.344;6.240;2023-10-31T07:35:23;10.10;99.90
31837;DHT22;18401;49.344;6.240;2023-10-31T07:37:49;10.00;99.90
31837;DHT22;18401;49.344;6.240;2023-10-31T07:40:15;10.10;99.90
31837;DHT22;18401;49.344;6.240;2023-10-31T07:42:40;10.10;99.90
31837;DHT22;18401;49.344;6.240;2023-10-31T07:45:06;10.10;99.90
31837;DHT22;18401;49.344;6.240;2023-10-31T07:47:32;10.10;99.90
31837;DHT22;18401;49.344;6.240;2023-10-31T07:49:58;10.10;99.90
31837;DHT22;18401;49.344;6.240;2023-10-31T07:52:24;10.20;99.90
31837;DHT22;18401;49.344;6.240;2023-10-31T07:54:50;10.10;99.90
31837;DHT22;18401;49.344;6.240;2023-10-31T07:57:15;10.20;99.90
31837;DHT22;18401;49.344;6.240;2023-10-31T07:59:41;10.20;99.90
31837;DHT22;18401;49.344;6.240;2023-10-31T08:02:07;10.30;99.90
31837;DHT22;18401;49.344;6.240;2023-10-31T08:04:32;10.30;99.90
31837;DHT22;18401;49.344;6.240;2023-10-31T08:06:58;10.30;99.90
31837;DHT22;18401;49.344;6.240;2023-10-31T08:09:23;10.30;99.90
31837;DHT22;18401;49.344;6.240;2023-10-31T08:11:49;10.30;99.90
31837;DHT22;18401;49.344;6.240;2023-10-31T08:14:15;10.30;99.90
31837;DHT22;18401;49.344;6.240;2023-10-31T08:16:41;10.20;99.90
31837;DHT22;18401;49.344;6.240;2023-10-31T08:19:08;10.20;99.90
31837;DHT22;18401;49.344;6.240;2023-10-31T08:21:34;10.20;99.90
31837;DHT22;18401;49.344;6.240;2023-10-31T08:24:04;10.20;99.90
31837;DHT22;18401;49.344;6.240;2023-10-31T08:26:31;10.20;99.90
31837;DHT22;18401;49.344;6.240;2023-10-31T08:28:57;10.20;99.90
31837;DHT22;18401;49.344;6.240;2023-10-31T08:31:23;10.20;99.90
31837;DHT22;18401;49.344;6.240;2023-10-31T08:33:49;10.10;99.90
31837;DHT22;18401;49.344;6.240;2023-10-31T08:36:14;10.20;99.90
31837;DHT22;18401;49.344;6.240;2023-10-31T08:38:40;10.20;99.90
31837;DHT22;18401;49.344;6.240;2023-10-31T08:41:06;10.20;99.90
31837;DHT22;18401;49.344;6.240;2023-10-31T08:43:31;10.40;99.90
31837;DHT22;18401;49.344;6.240;2023-10-31T08:45:57;10.50;99.90
31837;DHT22;18401;49.344;6.240;2023-10-31T08:48:22;10.60;99.90
31837;DHT22;18401;49.344;6.240;2023-10-31T08:50:48;10.60;99.90
31837;DHT22;18401;49.344;6.240;2023-10-31T08:53:14;10.60;99.90
31837;DHT22;18401;49.344;6.240;2023-10-31T08:55:40;10.50;99.90
31837;DHT22;18401;49.344;6.240;2023-10-31T08:58:12;10.70;99.90
31837;DHT22;18401;49.344;6.240;2023-10-31T09:00:42;10.70;99.90
31837;DHT22;18401;49.344;6.240;2023-10-31T09:03:08;10.80;99.90
31837;DHT22;18401;49.344;6.240;2023-10-31T09:05:34;10.80;99.90
31837;DHT22;18401;49.344;6.240;2023-10-31T09:08:00;10.70;99.90
31837;DHT22;18401;49.344;6.240;2023-10-31T09:10:25;10.60;99.90
31837;DHT22;18401;49.344;6.240;2023-10-31T09:12:51;10.60;99.90
31837;DHT22;18401;49.344;6.240;2023-10-31T09:15:17;10.70;99.90
31837;DHT22;18401;49.344;6.240;2023-10-31T09:17:44;10.90;99.90
31837;DHT22;18401;49.344;6.240;2023-10-31T09:20:10;10.90;99.90
31837;DHT22;18401;49.344;6.240;2023-10-31T09:22:37;11.00;99.90
31837;DHT22;18401;49.344;6.240;2023-10-31T09:25:02;11.20;99.90
31837;DHT22;18401;49.344;6.240;2023-10-31T09:27:28;11.20;99.90
31837;DHT22;18401;49.344;6.240;2023-10-31T09:29:54;11.30;99.90
31837;DHT22;18401;49.344;6.240;2023-10-31T09:32:19;11.60;99.90
31837;DHT22;18401;49.344;6.240;2023-10-31T09:34:45;11.90;99.90
31837;DHT22;18401;49.344;6.240;2023-10-31T09:37:11;12.20;99.90
31837;DHT22;18401;49.344;6.240;2023-10-31T09:39:36;12.60;99.90
31837;DHT22;18401;49.344;6.240;2023-10-31T09:42:02;12.20;99.90
31837;DHT22;18401;49.344;6.240;2023-10-31T09:44:28;11.90;99.90
31837;DHT22;18401;49.344;6.240;2023-10-31T09:46:54;11.70;99.90
31837;DHT22;18401;49.344;6.240;2023-10-31T09:49:20;11.70;99.90
31837;DHT22;18401;49.344;6.240;2023-10-31T09:51:46;11.80;99.90
31837;DHT22;18401;49.344;6.240;2023-10-31T09:54:12;11.70;99.90
31837;DHT22;18401;49.344;6.240;2023-10-31T09:56:41;12.40;99.90
31837;DHT22;18401;49.344;6.240;2023-10-31T09:59:07;12.40;99.90
31837;DHT22;18401;49.344;6.240;2023-10-31T10:01:33;12.10;99.90
31837;DHT22;18401;49.344;6.240;2023-10-31T10:03:58;11.60;99.90
31837;DHT22;18401;49.344;6.240;2023-10-31T10:06:24;11.80;99.90
31837;DHT22;18401;49.344;6.240;2023-10-31T10:08:50;11.70;99.90
31837;DHT22;18401;49.344;6.240;2023-10-31T10:11:16;11.80;99.90
31837;DHT22;18401;49.344;6.240;2023-10-31T10:13:41;11.90;99.90
31837;DHT22;18401;49.344;6.240;2023-10-31T10:16:08;12.00;99.90
31837;DHT22;18401;49.344;6.240;2023-10-31T10:18:35;12.00;99.90
31837;DHT22;18401;49.344;6.240;2023-10-31T10:21:04;12.00;99.90
31837;DHT22;18401;49.344;6.240;2023-10-31T10:23:31;12.40;99.90
31837;DHT22;18401;49.344;6.240;2023-10-31T10:25:58;12.40;99.90
31837;DHT22;18401;49.344;6.240;2023-10-31T10:28:25;12.30;99.90
31837;DHT22;18401;49.344;6.240;2023-10-31T10:30:51;12.40;99.90
31837;DHT22;18401;49.344;6.240;2023-10-31T10:33:18;12.50;99.90
31837;DHT22;18401;49.344;6.240;2023-10-31T10:35:44;12.20;99.90
31837;DHT22;18401;49.344;6.240;2023-10-31T10:38:14;12.40;99.90
31837;DHT22;18401;49.344;6.240;2023-10-31T10:40:41;13.10;99.90
31837;DHT22;18401;49.344;6.240;2023-10-31T10:43:13;13.30;99.90
31837;DHT22;18401;49.344;6.240;2023-10-31T10:45:43;13.00;99.90
31837;DHT22;18401;49.344;6.240;2023-10-31T10:48:12;12.80;99.90
31837;DHT22;18401;49.344;6.240;2023-10-31T10:50:45;12.80;99.90
31837;DHT22;18401;49.344;6.240;2023-10-31T10:53:22;12.70;99.90
31837;DHT22;18401;49.344;6.240;2023-10-31T10:55:51;12.60;99.90
31837;DHT22;18401;49.344;6.240;2023-10-31T10:58:41;12.50;99.90
31837;DHT22;18401;49.344;6.240;2023-10-31T11:01:10;12.60;99.90
31837;DHT22;18401;49.344;6.240;2023-10-31T11:03:36;12.60;99.90
31837;DHT22;18401;49.344;6.240;2023-10-31T11:06:03;12.80;99.90
31837;DHT22;18401;49.344;6.240;2023-10-31T11:08:30;12.60;99.90
31837;DHT22;18401;49.344;6.240;2023-10-31T11:10:56;12.70;99.90
31837;DHT22;18401;49.344;6.240;2023-10-31T11:13:23;12.90;99.90
31837;DHT22;18401;49.344;6.240;2023-10-31T11:15:54;13.00;99.90
31837;DHT22;18401;49.344;6.240;2023-10-31T11:18:21;12.80;99.90
31837;DHT22;18401;49.344;6.240;2023-10-31T11:20:47;12.70;99.90
31837;DHT22;18401;49.344;6.240;2023-10-31T11:23:13;12.80;99.90
31837;DHT22;18401;49.344;6.240;2023-10-31T11:25:49;12.80;99.90
31837;DHT22;18401;49.344;6.240;2023-10-31T11:28:16;12.80;99.90
31837;DHT22;18401;49.344;6.240;2023-10-31T11:30:43;13.00;99.90
31837;DHT22;18401;49.344;6.240;2023-10-31T11:33:14;13.20;99.90
31837;DHT22;18401;49.344;6.240;2023-10-31T11:35:40;13.00;99.90
31837;DHT22;18401;49.344;6.240;2023-10-31T11:38:10;13.00;99.90
31837;DHT22;18401;49.344;6.240;2023-10-31T11:40:37;13.00;99.90
31837;DHT22;18401;49.344;6.240;2023-10-31T11:43:11;12.90;99.90
31837;DHT22;18401;49.344;6.240;2023-10-31T11:45:41;13.30;99.90
31837;DHT22;18401;49.344;6.240;2023-10-31T11:48:10;14.10;99.90
31837;DHT22;18401;49.344;6.240;2023-10-31T11:50:37;13.60;99.90
31837;DHT22;18401;49.344;6.240;2023-10-31T11:53:08;14.00;99.90
31837;DHT22;18401;49.344;6.240;2023-10-31T11:55:38;13.80;99.90
31837;DHT22;18401;49.344;6.240;2023-10-31T12:00:39;13.30;99.90
31837;DHT22;18401;49.344;6.240;2023-10-31T12:03:04;13.40;99.90
31837;DHT22;18401;49.344;6.240;2023-10-31T12:05:30;13.60;99.90
31837;DHT22;18401;49.344;6.240;2023-10-31T12:07:56;13.70;99.90
31837;DHT22;18401;49.344;6.240;2023-10-31T12:10:26;13.50;99.90
31837;DHT22;18401;49.344;6.240;2023-10-31T12:12:55;13.20;99.90
31837;DHT22;18401;49.344;6.240;2023-10-31T12:15:22;13.20;99.90
31837;DHT22;18401;49.344;6.240;2023-10-31T12:17:48;13.40;99.90
31837;DHT22;18401;49.344;6.240;2023-10-31T12:20:14;13.20;99.90
31837;DHT22;18401;49.344;6.240;2023-10-31T12:22:41;12.90;99.90
31837;DHT22;18401;49.344;6.240;2023-10-31T12:25:08;13.00;99.90
31837;DHT22;18401;49.344;6.240;2023-10-31T12:30:16;13.10;99.90
31837;DHT22;18401;49.344;6.240;2023-10-31T12:32:42;12.90;99.90
31837;DHT22;18401;49.344;6.240;2023-10-31T12:35:12;12.90;99.90
31837;DHT22;18401;49.344;6.240;2023-10-31T12:37:45;12.90;99.90
31837;DHT22;18401;49.344;6.240;2023-10-31T12:40:13;12.90;99.90
31837;DHT22;18401;49.344;6.240;2023-10-31T12:42:39;12.70;99.90
31837;DHT22;18401;49.344;6.240;2023-10-31T12:45:05;12.80;99.90
31837;DHT22;18401;49.344;6.240;2023-10-31T12:47:31;12.80;99.90
31837;DHT22;18401;49.344;6.240;2023-10-31T12:50:13;12.70;99.90
31837;DHT22;18401;49.344;6.240;2023-10-31T12:55:18;12.70;99.90
31837;DHT22;18401;49.344;6.240;2023-10-31T12:57:44;12.80;99.90
31837;DHT22;18401;49.344;6.240;2023-10-31T13:00:11;12.70;99.90
31837;DHT22;18401;49.344;6.240;2023-10-31T13:02:41;12.90;99.90
31837;DHT22;18401;49.344;6.240;2023-10-31T13:05:15;13.10;99.90
31837;DHT22;18401;49.344;6.240;2023-10-31T13:07:48;13.00;99.90
31837;DHT22;18401;49.344;6.240;2023-10-31T13:10:16;12.80;99.90
31837;DHT22;18401;49.344;6.240;2023-10-31T13:12:46;12.90;99.90
31837;DHT22;18401;49.344;6.240;2023-10-31T13:15:13;12.80;99.90
31837;DHT22;18401;49.344;6.240;2023-10-31T13:17:40;12.70;99.90
31837;DHT22;18401;49.344;6.240;2023-10-31T13:20:08;12.70;99.90
31837;DHT22;18401;49.344;6.240;2023-10-31T13:22:35;12.70;99.90
31837;DHT22;18401;49.344;6.240;2023-10-31T13:25:02;12.50;99.90
31837;DHT22;18401;49.344;6.240;2023-10-31T13:27:31;12.80;99.90
31837;DHT22;18401;49.344;6.240;2023-10-31T13:29:57;12.80;99.90
31837;DHT22;18401;49.344;6.240;2023-10-31T13:32:23;13.20;99.90
31837;DHT22;18401;49.344;6.240;2023-10-31T13:34:48;12.80;99.90
31837;DHT22;18401;49.344;6.240;2023-10-31T13:37:14;12.90;99.90
31837;DHT22;18401;49.344;6.240;2023-10-31T13:39:41;12.80;99.90
31837;DHT22;18401;49.344;6.240;2023-10-31T13:42:07;12.70;99.90
31837;DHT22;18401;49.344;6.240;2023-10-31T13:44:32;12.60;99.90
31837;DHT22;18401;49.344;6.240;2023-10-31T13:46:58;12.70;99.90
31837;DHT22;18401;49.344;6.240;2023-10-31T13:49:24;12.90;99.90
31837;DHT22;18401;49.344;6.240;2023-10-31T13:51:50;13.00;99.90
31837;DHT22;18401;49.344;6.240;2023-10-31T13:54:15;13.00;99.90
31837;DHT22;18401;49.344;6.240;2023-10-31T13:56:41;12.70;99.90
31837;DHT22;18401;49.344;6.240;2023-10-31T13:59:07;12.50;99.90
31837;DHT22;18401;49.344;6.240;2023-10-31T14:01:32;12.50;99.90
31837;DHT22;18401;49.344;6.240;2023-10-31T14:03:58;12.70;99.90
31837;DHT22;18401;49.344;6.240;2023-10-31T14:06:24;12.60;99.90
31837;DHT22;18401;49.344;6.240;2023-10-31T14:08:56;12.50;99.90
31837;DHT22;18401;49.344;6.240;2023-10-31T14:11:22;12.70;99.90
31837;DHT22;18401;49.344;6.240;2023-10-31T14:13:47;13.00;99.90
31837;DHT22;18401;49.344;6.240;2023-10-31T14:16:13;13.20;99.90
31837;DHT22;18401;49.344;6.240;2023-10-31T14:18:39;13.10;99.90
31837;DHT22;18401;49.344;6.240;2023-10-31T14:21:06;13.10;99.90
31837;DHT22;18401;49.344;6.240;2023-10-31T14:23:31;13.00;99.90
31837;DHT22;18401;49.344;6.240;2023-10-31T14:25:59;12.90;99.90
31837;DHT22;18401;49.344;6.240;2023-10-31T14:28:25;12.80;99.90
31837;DHT22;18401;49.344;6.240;2023-10-31T14:30:51;12.80;99.90
31837;DHT22;18401;49.344;6.240;2023-10-31T14:33:19;12.70;99.90
31837;DHT22;18401;49.344;6.240;2023-10-31T14:35:45;12.70;99.90
31837;DHT22;18401;49.344;6.240;2023-10-31T14:38:11;12.70;99.90
31837;DHT22;18401;49.344;6.240;2023-10-31T14:40:37;12.70;99.90
31837;DHT22;18401;49.344;6.240;2023-10-31T14:43:03;12.80;99.90
31837;DHT22;18401;49.344;6.240;2023-10-31T14:45:28;13.40;99.90
31837;DHT22;18401;49.344;6.240;2023-10-31T14:47:54;14.00;99.90
31837;DHT22;18401;49.344;6.240;2023-10-31T14:50:20;14.90;99.90
31837;DHT22;18401;49.344;6.240;2023-10-31T14:52:49;14.50;99.90
31837;DHT22;18401;49.344;6.240;2023-10-31T14:55:16;13.70;99.90
31837;DHT22;18401;49.344;6.240;2023-10-31T14:57:42;13.20;99.90
31837;DHT22;18401;49.344;6.240;2023-10-31T15:00:08;13.00;99.90
31837;DHT22;18401;49.344;6.240;2023-10-31T15:02:35;13.00;99.90
31837;DHT22;18401;49.344;6.240;2023-10-31T15:05:01;12.90;99.90
31837;DHT22;18401;49.344;6.240;2023-10-31T15:07:29;12.80;99.90
31837;DHT22;18401;49.344;6.240;2023-10-31T15:09:55;12.70;99.90
31837;DHT22;18401;49.344;6.240;2023-10-31T15:12:20;12.50;99.90
31837;DHT22;18401;49.344;6.240;2023-10-31T15:14:46;12.40;99.90
31837;DHT22;18401;49.344;6.240;2023-10-31T15:17:12;12.40;99.90
31837;DHT22;18401;49.344;6.240;2023-10-31T15:19:38;12.40;99.90
31837;DHT22;18401;49.344;6.240;2023-10-31T15:22:03;12.30;99.90
31837;DHT22;18401;49.344;6.240;2023-10-31T15:24:29;12.20;99.90
31837;DHT22;18401;49.344;6.240;2023-10-31T15:26:56;12.20;99.90
31837;DHT22;18401;49.344;6.240;2023-10-31T15:29:22;12.10;99.90
31837;DHT22;18401;49.344;6.240;2023-10-31T15:31:48;12.20;99.90
31837;DHT22;18401;49.344;6.240;2023-10-31T15:34:20;12.20;99.90
31837;DHT22;18401;49.344;6.240;2023-10-31T15:36:45;12.20;99.90